Time;durP1;ratioP1;P1;durP2;ratioP2;P2;SDS_P1;SDS_P2;PMS_P1;PMS_P2;Temp;Humidity;BMP_temperature;BMP_pressure;BME280_temperature;BME280_humidity;BME280_pressure;Samples;Min_cycle;Max_cycle;Signal;HPM_P1;HPM_P2
2023/03/23 00:01:13;;;;;;;21.00;19.00;;;;;;;6.18;84.34;97409.25;109720;1289;22274;-82
2023/03/23 00:03:41;;;;;;;21.30;19.20;;;;;;;6.19;84.56;97409.28;109705;1285;22414;-83
2023/03/23 00:06:08;;;;;;;19.00;17.20;;;;;;;6.19;84.41;97411.39;109740;1277;22282;-83
2023/03/23 00:08:37;;;;;;;18.30;16.20;;;;;;;6.22;84.55;97412.63;109735;1288;22948;-83
2023/03/23 00:11:04;;;;;;;17.40;15.80;;;;;;;6.20;85.64;97409.96;109693;1289;22263;-83
2023/03/23 00:13:32;;;;;;;28.80;26.10;;;;;;;6.16;85.61;97410.66;109724;1289;22213;-83
2023/03/23 00:15:59;;;;;;;19.00;17.10;;;;;;;6.17;85.25;97411.19;109740;1288;22146;-84
2023/03/23 00:18:26;;;;;;;19.40;17.70;;;;;;;6.23;85.02;97413.58;109573;1289;197003;-84
2023/03/23 00:20:56;;;;;;;22.70;20.50;;;;;;;6.23;84.79;97411.83;109701;1289;22192;-84
2023/03/23 00:23:25;;;;;;;18.30;16.40;;;;;;;6.23;86.19;97414.49;109684;1288;23022;-84
2023/03/23 00:25:57;;;;;;;17.60;15.90;;;;;;;6.21;85.58;97413.18;109710;1289;22213;-84
2023/03/23 00:28:26;;;;;;;17.30;15.70;;;;;;;6.28;85.42;97411.92;109639;1289;22319;-84
2023/03/23 00:30:58;;;;;;;17.30;15.60;;;;;;;6.36;85.63;97411.54;109738;1289;22815;-83
2023/03/23 00:33:28;;;;;;;19.00;17.20;;;;;;;6.41;85.37;97408.86;109548;1288;22142;-83
2023/03/23 00:35:55;;;;;;;21.10;19.30;;;;;;;6.35;85.83;97410.15;109689;1288;22760;-84
2023/03/23 00:38:23;;;;;;;55.30;50.70;;;;;;;6.29;86.16;97409.34;109641;1288;22267;-84
2023/03/23 00:40:53;;;;;;;38.30;34.30;;;;;;;6.25;86.00;97408.33;109691;1288;22917;-82
2023/03/23 00:43:24;;;;;;;28.20;25.50;;;;;;;6.22;86.28;97412.85;109690;1288;22238;-82
2023/03/23 00:45:54;;;;;;;19.40;17.60;;;;;;;6.14;86.66;97409.34;109641;1288;22251;-82
2023/03/23 00:48:24;;;;;;;17.70;15.80;;;;;;;6.09;86.34;97409.02;109674;1288;22991;-82
2023/03/23 00:50:52;;;;;;;16.60;15.00;;;;;;;6.09;86.41;97409.48;109705;1288;22358;-82
2023/03/23 00:53:19;;;;;;;20.40;18.50;;;;;;;6.15;86.38;97406.22;109684;1288;22912;-82
2023/03/23 00:55:47;;;;;;;25.40;22.90;;;;;;;6.21;86.34;97402.27;109683;1288;22297;-82
2023/03/23 00:58:15;;;;;;;18.00;16.20;;;;;;;6.21;86.29;97402.36;109707;1288;22118;-82
2023/03/23 01:00:42;;;;;;;16.60;15.10;;;;;;;6.28;86.56;97401.29;109693;1288;22212;-82
2023/03/23 01:03:11;;;;;;;18.30;16.70;;;;;;;6.23;87.60;97399.30;109690;1288;23046;-81
2023/03/23 01:05:39;;;;;;;20.00;18.20;;;;;;;6.15;87.86;97399.00;109604;1288;22237;-81
2023/03/23 01:08:10;;;;;;;15.10;13.70;;;;;;;6.10;87.75;97398.14;109699;1288;22182;-81
2023/03/23 01:10:38;;;;;;;15.00;12.70;;;;;;;6.09;87.96;97398.26;109717;1288;22294;-81
2023/03/23 01:13:07;;;;;;;14.50;13.00;;;;;;;6.10;87.51;97396.05;109907;1288;22189;-81
2023/03/23 01:15:33;;;;;;;15.40;13.90;;;;;;;6.17;87.31;97395.02;109919;1288;22232;-81
2023/03/23 01:18:00;;;;;;;15.90;13.90;;;;;;;6.25;87.23;97400.35;109827;1288;23370;-82
2023/03/23 01:20:29;;;;;;;18.70;16.80;;;;;;;6.27;87.33;97399.26;109648;1289;23253;-82
2023/03/23 01:23:00;;;;;;;21.00;19.20;;;;;;;6.24;88.05;97397.68;109748;1288;23105;-83
2023/03/23 01:25:29;;;;;;;16.70;15.20;;;;;;;6.21;87.80;97395.20;109731;1288;22515;-83
2023/03/23 01:27:57;;;;;;;20.30;18.40;;;;;;;6.18;88.65;97397.42;109731;1288;22115;-83
2023/03/23 01:30:26;;;;;;;31.80;29.20;;;;;;;6.17;89.01;97396.73;109724;1288;22274;-84
2023/03/23 01:32:54;;;;;;;23.10;21.00;;;;;;;6.20;88.64;97393.39;109727;1288;23084;-84
2023/03/23 01:35:21;;;;;;;26.20;23.80;;;;;;;6.21;88.47;97397.77;109701;1289;22388;-83
2023/03/23 01:37:48;;;;;;;18.40;16.60;;;;;;;6.21;88.73;97395.21;109702;1288;22194;-84
2023/03/23 01:40:16;;;;;;;18.80;16.80;;;;;;;6.21;89.41;97395.15;109718;1288;22420;-84
2023/03/23 01:42:44;;;;;;;17.50;13.60;;;;;;;6.21;89.55;97396.87;109656;1288;22301;-84
2023/03/23 01:45:20;;;;;;;14.10;12.20;;;;;;;6.21;90.17;97400.77;109704;1288;22404;-85
2023/03/23 01:48:08;;;;;;;13.80;12.60;;;;;;;6.21;89.70;97397.23;109693;1288;22192;-84
2023/03/23 01:51:16;;;;;;;16.90;15.40;;;;;;;6.20;89.57;97394.41;109602;1289;22120;-84
2023/03/23 01:53:52;;;;;;;35.90;32.80;;;;;;;6.23;89.58;97395.23;109567;1288;22109;-84
2023/03/23 01:56:24;;;;;;;26.60;23.90;;;;;;;6.20;90.33;97393.11;109701;1288;22196;-84
2023/03/23 01:58:56;;;;;;;31.60;28.60;;;;;;;6.16;89.90;97394.94;109713;1288;22680;-84
2023/03/23 02:01:25;;;;;;;84.40;76.70;;;;;;;6.12;89.48;97393.15;109683;1288;22960;-84
2023/03/23 02:03:55;;;;;;;31.00;28.20;;;;;;;6.07;89.85;97388.25;109694;1288;22242;-83
2023/03/23 02:06:23;;;;;;;32.10;28.90;;;;;;;6.06;90.39;97389.55;109676;1288;22805;-83
2023/03/23 02:09:19;;;;;;;35.90;32.10;;;;;;;6.05;91.08;97385.35;109676;1288;23545;-83
2023/03/23 02:11:49;;;;;;;36.40;32.80;;;;;;;6.07;90.71;97385.49;109712;1288;22290;-84
2023/03/23 02:14:17;;;;;;;40.60;36.60;;;;;;;6.07;90.43;97386.23;109700;1288;22233;-83
2023/03/23 02:16:52;;;;;;;57.40;52.00;;;;;;;6.07;90.41;97393.98;109695;1288;22196;-83
2023/03/23 02:19:41;;;;;;;65.60;59.40;;;;;;;6.09;90.39;97391.95;109696;1288;22185;-84
2023/03/23 02:22:30;;;;;;;50.90;46.20;;;;;;;6.13;90.09;97392.48;109608;1289;22250;-84
2023/03/23 02:25:10;;;;;;;64.50;58.60;;;;;;;6.18;90.20;97392.98;109693;1288;22785;-84
2023/03/23 02:27:47;;;;;;;36.40;33.00;;;;;;;6.16;90.08;97388.77;109710;1288;22253;-84
2023/03/23 02:30:40;;;;;;;34.70;31.60;;;;;;;6.15;90.15;97384.23;109698;1288;22147;-84
2023/03/23 02:33:37;;;;;;;27.10;24.50;;;;;;;6.15;89.93;97382.89;109606;1288;22382;-84
2023/03/23 02:36:21;;;;;;;24.50;22.20;;;;;;;6.23;90.08;97380.20;109649;1288;22930;-84
2023/03/23 02:39:02;;;;;;;24.60;22.40;;;;;;;6.30;90.04;97378.84;109704;1288;22971;-84
2023/03/23 02:41:34;;;;;;;23.10;20.90;;;;;;;6.32;90.00;97383.06;109726;1288;22621;-83
2023/03/23 02:44:03;;;;;;;23.70;21.50;;;;;;;6.31;89.93;97377.18;109688;1288;22275;-83
2023/03/23 02:46:31;;;;;;;22.10;19.90;;;;;;;6.33;89.99;97375.06;109685;1288;22196;-83
2023/03/23 02:49:00;;;;;;;22.80;20.70;;;;;;;6.38;89.98;97369.23;109702;1288;22214;-83
2023/03/23 02:51:28;;;;;;;24.30;21.80;;;;;;;6.45;89.87;97368.52;109691;1288;22287;-82
2023/03/23 02:53:56;;;;;;;25.10;22.70;;;;;;;6.51;89.61;97365.67;109678;1288;22241;-83
2023/03/23 02:56:27;;;;;;;27.40;25.00;;;;;;;6.50;90.09;97363.00;109700;1288;22928;-83
2023/03/23 02:58:55;;;;;;;20.70;18.80;;;;;;;6.42;90.37;97362.61;109677;1288;22198;-83
2023/03/23 03:01:25;;;;;;;23.70;21.50;;;;;;;6.31;90.64;97360.95;109694;1288;22218;-82
2023/03/23 03:03:55;;;;;;;24.50;22.30;;;;;;;6.23;90.51;97358.53;109683;1288;22218;-82
2023/03/23 03:06:36;;;;;;;24.20;22.00;;;;;;;6.20;90.45;97355.29;109703;1288;22247;-79
2023/03/23 03:09:10;;;;;;;23.90;21.70;;;;;;;6.26;90.66;97351.65;109699;1288;22418;-81
2023/03/23 03:11:44;;;;;;;25.10;22.90;;;;;;;6.36;90.65;97351.66;109695;1288;22245;-81
2023/03/23 03:14:17;;;;;;;22.10;18.90;;;;;;;6.43;90.54;97351.14;109626;1288;21986;-81
2023/03/23 03:16:45;;;;;;;20.50;18.50;;;;;;;6.46;90.35;97351.16;109680;1288;23558;-81
2023/03/23 03:19:31;;;;;;;22.80;20.10;;;;;;;6.51;90.51;97354.16;109636;1289;22277;-81
2023/03/23 03:21:59;;;;;;;21.50;19.50;;;;;;;6.59;90.36;97356.42;109691;1288;23014;-82
2023/03/23 03:24:42;;;;;;;21.10;19.00;;;;;;;6.61;90.18;97353.25;109628;1288;22659;-82
2023/03/23 03:27:16;;;;;;;22.80;20.60;;;;;;;6.56;90.04;97353.19;109683;1288;22175;-82
2023/03/23 03:29:51;;;;;;;25.60;23.30;;;;;;;6.51;90.04;97355.76;109632;1288;22251;-82
2023/03/23 03:32:26;;;;;;;29.20;26.40;;;;;;;6.49;90.18;97346.63;109693;1288;23095;-82
2023/03/23 03:34:53;;;;;;;27.10;24.40;;;;;;;6.45;90.44;97341.59;109636;1288;22171;-81
2023/03/23 03:37:20;;;;;;;26.50;23.80;;;;;;;6.39;90.38;97337.55;109429;1289;23095;-81
2023/03/23 03:39:48;;;;;;;24.90;22.50;;;;;;;6.42;90.49;97338.42;109632;1289;22194;-82
2023/03/23 03:42:15;;;;;;;22.10;20.10;;;;;;;6.49;90.76;97344.98;109704;1288;22938;-82
2023/03/23 03:44:42;;;;;;;22.80;20.60;;;;;;;6.45;91.25;97342.45;109632;1288;22283;-81
2023/03/23 03:47:09;;;;;;;26.00;23.40;;;;;;;6.38;91.07;97339.11;109692;1289;22207;-82
2023/03/23 03:49:36;;;;;;;25.90;23.30;;;;;;;6.39;91.14;97341.02;109687;1288;22351;-82
2023/03/23 03:52:03;;;;;;;26.20;23.80;;;;;;;6.40;91.03;97343.15;109702;1281;22232;-82
2023/03/23 03:54:37;;;;;;;28.50;25.80;;;;;;;6.34;91.04;97344.45;109676;1288;22418;-82
2023/03/23 03:57:04;;;;;;;27.10;24.80;;;;;;;6.28;91.53;97347.03;109678;1288;22870;-82
2023/03/23 03:59:52;;;;;;;24.40;22.00;;;;;;;6.26;91.19;97345.33;109691;1288;22363;-82
2023/03/23 04:02:38;;;;;;;22.90;20.80;;;;;;;6.25;91.27;97346.30;109606;1288;22238;-83
2023/03/23 04:05:05;;;;;;;26.50;24.00;;;;;;;6.25;91.36;97345.67;109682;1288;22195;-82
2023/03/23 04:07:32;;;;;;;22.40;20.30;;;;;;;6.31;91.44;97347.09;109629;1288;23221;-82
2023/03/23 04:09:59;;;;;;;25.10;22.80;;;;;;;6.34;91.22;97345.69;109695;1288;22111;-84
2023/03/23 04:12:26;;;;;;;23.60;21.50;;;;;;;6.30;91.35;97346.67;109701;1288;23643;-85
2023/03/23 04:14:56;;;;;;;25.70;23.20;;;;;;;6.28;91.42;97341.45;109661;1288;22202;-83
2023/03/23 04:17:26;;;;;;;33.30;30.20;;;;;;;6.31;91.68;97339.50;109689;1288;22211;-83
2023/03/23 04:19:57;;;;;;;32.40;29.70;;;;;;;6.33;91.43;97331.77;109646;1288;22205;-82
2023/03/23 04:22:29;;;;;;;28.30;25.40;;;;;;;6.35;91.43;97337.27;109696;1288;22294;-82
2023/03/23 04:24:59;;;;;;;23.50;21.40;;;;;;;6.29;92.09;97338.84;109720;1279;22212;-84
2023/03/23 04:27:27;;;;;;;22.60;20.60;;;;;;;6.21;92.59;97345.33;109871;1288;22287;-83
2023/03/23 04:29:57;;;;;;;23.00;20.70;;;;;;;6.14;93.05;97349.36;109856;1288;22239;-82
2023/03/23 04:32:43;;;;;;;25.20;22.90;;;;;;;6.13;92.74;97351.41;109919;1288;22144;-81
2023/03/23 04:35:13;;;;;;;22.10;20.10;;;;;;;6.15;92.42;97349.99;109948;1288;22304;-83
2023/03/23 04:37:45;;;;;;;24.60;22.30;;;;;;;6.19;92.32;97347.65;109930;1288;22232;-82
2023/03/23 04:40:16;;;;;;;26.50;24.00;;;;;;;6.24;92.14;97345.69;109667;1288;22174;-83
2023/03/23 04:42:48;;;;;;;23.80;20.60;;;;;;;6.22;92.15;97342.32;109659;1288;22211;-83
2023/03/23 04:45:21;;;;;;;24.70;22.50;;;;;;;6.25;92.29;97344.98;109737;1288;22170;-83
2023/03/23 04:47:57;;;;;;;24.80;22.50;;;;;;;6.22;92.04;97349.81;109736;1288;23086;-82
2023/03/23 04:51:04;;;;;;;25.10;22.90;;;;;;;6.14;92.16;97344.82;109716;1284;22023;-82
2023/03/23 04:53:34;;;;;;;27.70;25.00;;;;;;;6.04;92.29;97342.34;109646;1288;22182;-82
2023/03/23 04:56:02;;;;;;;22.70;20.20;;;;;;;6.04;92.45;97337.80;109652;1288;22846;-82
2023/03/23 04:58:33;;;;;;;26.80;24.10;;;;;;;6.03;92.27;97338.23;109684;1288;22967;-82
2023/03/23 05:01:14;;;;;;;23.80;21.70;;;;;;;6.03;92.33;97339.77;109677;1288;22206;-85
2023/03/23 05:03:48;;;;;;;22.90;20.60;;;;;;;6.01;92.49;97336.34;109603;1288;23080;-85
2023/03/23 05:06:15;;;;;;;21.00;19.00;;;;;;;6.05;92.70;97336.45;109706;1288;22448;-84
2023/03/23 05:08:42;;;;;;;23.20;20.90;;;;;;;6.12;92.76;97333.92;109752;1288;22219;-85
2023/03/23 05:11:11;;;;;;;20.80;18.80;;;;;;;6.19;92.79;97328.23;109719;1288;22311;-87
2023/03/23 05:13:40;;;;;;;24.50;22.20;;;;;;;6.30;92.87;97330.63;109591;1288;23094;-87
2023/03/23 05:16:08;;;;;;;22.30;20.10;;;;;;;6.36;92.56;97329.98;109649;1288;23035;-88
2023/03/23 05:18:35;;;;;;;19.00;17.20;;;;;;;6.47;92.97;97331.56;109452;1285;22216;-87
2023/03/23 05:21:04;;;;;;;21.30;19.30;;;;;;;6.59;92.88;97337.09;109617;1288;22927;-86
2023/03/23 05:23:35;;;;;;;21.40;19.30;;;;;;;6.70;92.94;97334.86;109646;1288;22272;-87
2023/03/23 05:26:11;;;;;;;19.90;17.90;;;;;;;6.79;93.06;97337.33;109665;1288;23001;-92
2023/03/23 05:28:38;;;;;;;22.50;20.50;;;;;;;6.78;92.67;97343.27;109652;1288;22374;-90
2023/03/23 05:31:09;;;;;;;23.70;21.20;;;;;;;6.80;92.94;97342.73;109642;1288;22222;-86
2023/03/23 05:33:37;;;;;;;19.70;17.80;;;;;;;6.93;93.43;97340.04;109734;1288;22274;-85
2023/03/23 05:36:13;;;;;;;18.70;16.40;;;;;;;7.08;93.21;97340.80;109736;1288;22201;-87
2023/03/23 05:38:59;;;;;;;18.20;16.30;;;;;;;7.27;93.24;97342.58;109664;1288;22216;-83
2023/03/23 05:41:33;;;;;;;32.40;29.00;;;;;;;7.40;92.90;97343.82;109609;1288;22805;-83
2023/03/23 05:44:02;;;;;;;30.50;27.70;;;;;;;7.51;93.11;97349.00;109704;1288;22201;-85
2023/03/23 05:46:46;;;;;;;20.00;17.90;;;;;;;7.58;93.11;97350.39;109688;1288;22204;-83
2023/03/23 05:49:18;;;;;;;22.40;20.30;;;;;;;7.61;93.20;97352.34;109706;1288;22138;-84
2023/03/23 05:51:49;;;;;;;24.80;22.60;;;;;;;7.76;93.27;97351.95;109593;1288;22096;-84
2023/03/23 05:54:17;;;;;;;23.20;20.80;;;;;;;7.95;93.60;97351.69;109602;1288;22259;-85
2023/03/23 05:56:48;;;;;;;19.60;17.60;;;;;;;8.15;93.48;97347.83;109627;1288;22236;-85
2023/03/23 05:59:35;;;;;;;19.90;15.80;;;;;;;8.40;93.61;97346.63;109708;1288;22178;-87
2023/03/23 06:02:04;;;;;;;18.20;15.20;;;;;;;8.60;93.50;97351.08;109617;1288;22285;-87
2023/03/23 06:04:33;;;;;;;19.60;15.40;;;;;;;8.79;93.62;97350.94;109644;1288;22198;-86
2023/03/23 06:07:30;;;;;;;21.40;19.20;;;;;;;8.99;93.39;97350.30;109618;1288;22241;-85
2023/03/23 06:10:02;;;;;;;18.70;15.20;;;;;;;9.15;93.29;97349.15;109691;1281;23104;-86
2023/03/23 06:12:40;;;;;;;15.60;13.60;;;;;;;9.35;92.94;97343.33;109708;1288;22448;-86
2023/03/23 06:15:21;;;;;;;16.30;13.70;;;;;;;9.57;93.08;97336.52;109656;1288;22383;-85
2023/03/23 06:18:07;;;;;;;20.50;15.90;;;;;;;9.81;92.70;97336.48;109696;1288;22330;-85
2023/03/23 06:20:43;;;;;;;;;;;;;;;10.00;92.53;97335.14;109706;1288;22495;-86
2023/03/23 06:23:30;;;;;;;16.80;14.60;;;;;;;10.19;92.53;97337.07;109714;1288;22239;-86
2023/03/23 06:26:00;;;;;;;15.30;13.80;;;;;;;10.35;92.33;97340.28;109693;1288;22321;-86
2023/03/23 06:28:28;;;;;;;17.20;14.50;;;;;;;10.53;92.16;97336.79;109650;1288;22262;-87
2023/03/23 06:30:58;;;;;;;17.30;15.40;;;;;;;10.70;91.89;97340.02;109664;1288;22178;-85
2023/03/23 06:33:25;;;;;;;18.70;16.40;;;;;;;10.90;91.65;97340.95;109709;1288;22305;-85
2023/03/23 06:36:22;;;;;;;14.10;11.30;;;;;;;11.13;90.94;97339.70;109705;1288;22289;-86
2023/03/23 06:39:05;;;;;;;15.00;12.70;;;;;;;11.31;90.59;97340.98;109715;1288;22266;-86
2023/03/23 06:41:47;;;;;;;16.20;13.40;;;;;;;11.53;90.59;97341.33;109697;1288;22232;-86
2023/03/23 06:44:14;;;;;;;21.20;14.30;;;;;;;11.71;90.45;97343.02;109639;1288;22910;-86
2023/03/23 06:46:42;;;;;;;19.00;13.80;;;;;;;11.89;90.08;97345.70;109717;1288;22388;-86
2023/03/23 06:49:18;;;;;;;12.30;10.40;;;;;;;12.08;89.35;97345.40;109715;1288;22394;-86
2023/03/23 06:52:08;;;;;;;14.50;10.20;;;;;;;12.24;88.77;97338.59;109716;1288;22272;-86
2023/03/23 06:54:35;;;;;;;12.50;9.30;;;;;;;12.37;88.61;97340.73;109696;1288;22234;-85
2023/03/23 06:57:03;;;;;;;14.00;9.20;;;;;;;12.49;88.28;97338.75;109701;1288;22117;-86
2023/03/23 06:59:30;;;;;;;21.80;10.30;;;;;;;12.58;86.73;97347.23;109699;1288;22265;-86
2023/03/23 07:01:57;;;;;;;14.70;11.90;;;;;;;12.67;86.37;97348.11;109724;1288;22226;-86
2023/03/23 07:04:24;;;;;;;17.60;11.40;;;;;;;12.75;86.16;97351.22;109683;1288;22307;-84
2023/03/23 07:07:01;;;;;;;18.50;11.90;;;;;;;12.81;85.20;97354.08;109721;1288;22695;-84
2023/03/23 07:09:31;;;;;;;17.50;12.50;;;;;;;12.86;85.06;97354.06;109631;1288;23128;-84
2023/03/23 07:11:58;;;;;;;14.70;11.00;;;;;;;12.92;84.76;97349.35;109745;1288;22304;-81
2023/03/23 07:14:31;;;;;;;11.60;10.00;;;;;;;12.99;84.21;97347.66;109947;1288;22211;-83
2023/03/23 07:16:58;;;;;;;17.40;9.80;;;;;;;13.02;80.87;97344.17;109937;1288;22307;-83
2023/03/23 07:19:25;;;;;;;12.40;8.80;;;;;;;13.07;80.76;97344.33;109882;1288;22336;-83
2023/03/23 07:21:53;;;;;;;12.50;8.70;;;;;;;13.11;80.79;97353.34;109715;1288;22771;-84
2023/03/23 07:24:21;;;;;;;9.90;8.00;;;;;;;13.16;76.55;97354.06;109735;1288;22186;-83
2023/03/23 07:27:04;;;;;;;11.00;8.30;;;;;;;13.21;78.43;97348.88;109666;1288;22123;-84
2023/03/23 07:29:34;;;;;;;12.40;8.30;;;;;;;13.27;77.78;97349.92;109699;1288;22200;-84
2023/03/23 07:32:11;;;;;;;10.60;7.90;;;;;;;13.35;78.49;97346.27;109689;1288;22887;-83
2023/03/23 07:34:39;;;;;;;10.20;7.50;;;;;;;13.42;78.15;97345.30;109653;1278;22343;-83
2023/03/23 07:37:19;;;;;;;10.30;8.80;;;;;;;13.49;75.66;97351.57;109705;1288;22229;-84
2023/03/23 07:39:48;;;;;;;11.00;8.80;;;;;;;13.54;75.18;97353.73;109739;1288;22849;-84
2023/03/23 07:42:15;;;;;;;11.10;8.00;;;;;;;13.57;73.80;97350.55;109769;1288;23079;-83
2023/03/23 07:44:47;;;;;;;12.70;9.40;;;;;;;13.59;73.50;97350.63;109764;1288;22226;-83
2023/03/23 07:47:14;;;;;;;13.30;9.10;;;;;;;13.60;73.03;97355.48;109740;1288;22199;-83
2023/03/23 07:49:42;;;;;;;11.50;8.30;;;;;;;13.62;74.40;97358.42;109728;1288;22130;-84
2023/03/23 07:52:39;;;;;;;10.00;7.20;;;;;;;13.67;75.13;97356.95;109567;1288;22152;-83
2023/03/23 07:55:11;;;;;;;11.40;7.80;;;;;;;13.72;74.43;97360.55;109496;1288;22407;-83
2023/03/23 07:57:56;;;;;;;10.40;7.60;;;;;;;13.75;73.23;97358.78;109671;1288;22919;-84
2023/03/23 08:00:25;;;;;;;9.50;7.70;;;;;;;13.75;72.56;97359.09;109732;1288;22411;-83
2023/03/23 08:02:56;;;;;;;8.20;7.20;;;;;;;13.76;73.44;97363.09;109694;1288;22217;-83
2023/03/23 08:05:47;;;;;;;15.30;7.40;;;;;;;13.80;72.69;97361.15;109392;1288;22145;-83
2023/03/23 08:08:14;;;;;;;9.70;6.80;;;;;;;13.81;72.41;97360.48;109733;1288;23048;-83
2023/03/23 08:10:59;;;;;;;12.70;7.50;;;;;;;13.85;71.84;97360.36;109723;1288;22300;-84
2023/03/23 08:13:52;;;;;;;9.40;7.20;;;;;;;13.88;71.83;97365.20;109666;1288;22348;-83
2023/03/23 08:16:49;;;;;;;8.80;7.30;;;;;;;13.93;71.71;97367.24;109148;1288;22201;-84
2023/03/23 08:19:36;;;;;;;13.30;9.40;;;;;;;13.98;70.90;97371.44;109739;1282;22178;-83
2023/03/23 08:22:44;;;;;;;17.30;9.50;;;;;;;14.01;71.13;97369.08;109028;1288;22164;-83
2023/03/23 08:25:33;;;;;;;14.00;9.70;;;;;;;14.07;69.82;97371.98;109698;1288;22190;-82
2023/03/23 08:28:18;;;;;;;19.00;10.80;;;;;;;14.11;70.66;97367.56;109675;1288;23086;-83
2023/03/23 08:31:09;;;;;;;15.70;9.00;;;;;;;14.22;71.02;97367.33;109742;1288;22156;-83
2023/03/23 08:33:52;;;;;;;21.60;10.80;;;;;;;14.33;71.01;97363.74;109558;1288;22153;-83
2023/03/23 08:36:46;;;;;;;9.40;6.90;;;;;;;14.45;70.72;97358.56;109384;1288;22166;-83
2023/03/23 08:39:31;;;;;;;10.10;7.20;;;;;;;14.56;70.22;97360.64;109630;1288;22389;-83
2023/03/23 08:42:18;;;;;;;11.10;7.10;;;;;;;14.65;70.19;97361.86;109312;1288;22398;-83
2023/03/23 08:45:15;;;;;;;10.40;6.10;;;;;;;14.75;66.48;97365.91;109598;1288;22399;-83
2023/03/23 08:47:59;;;;;;;10.10;6.20;;;;;;;14.79;65.67;97365.02;109720;1288;22332;-83
2023/03/23 08:50:44;;;;;;;7.30;5.90;;;;;;;14.88;63.99;97368.65;109624;1288;22114;-83
2023/03/23 08:53:21;;;;;;;9.20;6.30;;;;;;;14.92;62.68;97364.38;109661;1288;22277;-83
2023/03/23 08:55:49;;;;;;;9.30;6.40;;;;;;;15.02;62.72;97359.30;109657;1288;22219;-83
2023/03/23 08:58:42;;;;;;;;;;;;;;;15.15;62.58;97357.70;109608;1288;22341;-83
2023/03/23 09:01:27;;;;;;;9.10;5.70;;;;;;;15.28;63.00;97355.75;109644;1288;22288;-83
2023/03/23 09:04:14;;;;;;;7.30;5.30;;;;;;;15.37;62.22;97360.30;109693;1288;22275;-83
2023/03/23 09:06:59;;;;;;;10.40;5.50;;;;;;;15.50;61.74;97359.80;109724;1284;22304;-83
2023/03/23 09:09:26;;;;;;;7.30;5.40;;;;;;;15.62;60.21;97361.39;109677;1285;22308;-83
2023/03/23 09:11:53;;;;;;;9.90;5.30;;;;;;;15.73;61.78;97355.36;109718;1274;22170;-83
2023/03/23 09:14:20;;;;;;;8.40;5.50;;;;;;;15.94;60.75;97357.98;109679;1288;22306;-84
2023/03/23 09:16:47;;;;;;;9.40;5.00;;;;;;;16.09;59.85;97359.69;109732;1288;22246;-82
2023/03/23 09:19:13;;;;;;;8.10;5.40;;;;;;;16.13;59.00;97357.60;109748;1288;22249;-82
2023/03/23 09:21:41;;;;;;;8.10;6.20;;;;;;;16.19;58.51;97355.19;109743;1288;22267;-83
2023/03/23 09:24:09;;;;;;;8.40;6.30;;;;;;;16.20;56.95;97364.58;109639;1288;22412;-82
2023/03/23 09:26:36;;;;;;;10.40;6.10;;;;;;;16.21;56.21;97362.72;109720;1288;22198;-82
2023/03/23 09:29:03;;;;;;;7.00;5.50;;;;;;;16.24;56.98;97364.89;109711;1288;22177;-83
2023/03/23 09:31:31;;;;;;;9.80;6.70;;;;;;;16.36;56.29;97363.57;109608;1280;22774;-83
2023/03/23 09:33:59;;;;;;;11.90;7.30;;;;;;;16.50;56.77;97364.94;109740;1288;22283;-83
2023/03/23 09:36:26;;;;;;;9.40;6.60;;;;;;;16.58;55.39;97358.46;109595;1288;23693;-83
2023/03/23 09:38:54;;;;;;;11.20;5.90;;;;;;;16.55;54.53;97355.27;109663;1288;22191;-83
2023/03/23 09:41:27;;;;;;;7.80;5.40;;;;;;;16.58;56.17;97356.21;109690;1288;22241;-83
2023/03/23 09:44:22;;;;;;;11.30;6.80;;;;;;;16.76;54.77;97358.27;109746;1288;22119;-83
2023/03/23 09:46:58;;;;;;;13.30;7.00;;;;;;;16.94;53.78;97360.36;109701;1288;22251;-82
2023/03/23 09:49:32;;;;;;;10.80;7.50;;;;;;;17.07;51.54;97359.16;109681;1288;22670;-83
2023/03/23 09:52:03;;;;;;;9.30;6.70;;;;;;;17.09;50.74;97357.96;109681;1288;22234;-83
2023/03/23 09:54:38;;;;;;;10.20;6.70;;;;;;;17.12;50.71;97354.86;109744;1288;22282;-83
2023/03/23 09:57:14;;;;;;;9.60;6.60;;;;;;;17.19;50.25;97353.85;109738;1288;22237;-83
2023/03/23 09:59:52;;;;;;;12.10;7.50;;;;;;;17.26;50.58;97351.11;109747;1288;22342;-83
2023/03/23 10:02:28;;;;;;;9.90;6.60;;;;;;;17.36;50.72;97355.20;109755;1288;22642;-84
2023/03/23 10:05:14;;;;;;;11.50;6.40;;;;;;;17.51;49.62;97349.48;109591;1288;22279;-83
2023/03/23 10:07:41;;;;;;;10.30;6.30;;;;;;;17.61;49.03;97343.15;109744;1288;23072;-84
2023/03/23 10:10:13;;;;;;;11.60;6.10;;;;;;;17.65;46.37;97336.61;109794;1288;22197;-84
2023/03/23 10:12:53;;;;;;;10.60;6.50;;;;;;;17.69;45.94;97337.00;109908;1285;22231;-84
2023/03/23 10:15:28;;;;;;;29.70;6.90;;;;;;;17.80;44.63;97333.83;109902;1288;22142;-83
2023/03/23 10:18:24;;;;;;;9.30;6.40;;;;;;;17.93;44.60;97329.93;109891;1288;22144;-83
2023/03/23 10:20:58;;;;;;;10.80;6.60;;;;;;;18.09;43.44;97333.59;109763;1288;22190;-85
2023/03/23 10:23:40;;;;;;;8.30;6.20;;;;;;;18.17;42.77;97327.57;109747;1288;22284;-83
2023/03/23 10:26:30;;;;;;;8.10;6.60;;;;;;;18.26;42.00;97317.13;109845;1288;22194;-83
2023/03/23 10:29:23;;;;;;;9.30;6.30;;;;;;;18.32;42.09;97314.83;109314;1288;22214;-84
2023/03/23 10:31:50;;;;;;;9.90;6.00;;;;;;;18.43;42.93;97305.02;109686;1288;22317;-84
2023/03/23 10:34:23;;;;;;;9.90;6.60;;;;;;;18.54;42.07;97301.02;109767;1288;22225;-84
2023/03/23 10:37:20;;;;;;;9.40;5.90;;;;;;;18.61;41.70;97293.55;109756;1288;22191;-83
2023/03/23 10:39:55;;;;;;;7.80;5.60;;;;;;;18.72;42.23;97286.09;109703;1288;22269;-83
2023/03/23 10:42:26;;;;;;;8.20;5.80;;;;;;;18.86;41.66;97285.30;109699;1288;22405;-83
2023/03/23 10:44:54;;;;;;;10.80;6.10;;;;;;;18.93;40.40;97296.63;109716;1288;22182;-84
2023/03/23 10:47:22;;;;;;;10.70;6.00;;;;;;;18.99;39.84;97310.84;109598;1288;22243;-83
2023/03/23 10:50:12;;;;;;;13.90;8.30;;;;;;;19.02;39.64;97298.16;109572;1288;22124;-84
2023/03/23 10:52:44;;;;;;;9.20;6.90;;;;;;;19.07;40.41;97295.81;109720;1281;22203;-82
2023/03/23 10:55:15;;;;;;;9.00;6.60;;;;;;;19.23;39.75;97297.83;109739;1288;22310;-83
2023/03/23 10:57:59;;;;;;;9.90;7.00;;;;;;;19.27;38.95;97299.52;109733;1288;22191;-82
2023/03/23 11:00:28;;;;;;;9.10;5.80;;;;;;;19.24;38.82;97298.38;109726;1288;22240;-84
2023/03/23 11:03:02;;;;;;;9.00;6.50;;;;;;;19.26;38.77;97287.10;109731;1288;22931;-83
2023/03/23 11:05:54;;;;;;;12.80;7.00;;;;;;;19.33;39.08;97274.38;109728;1281;22234;-83
2023/03/23 11:08:36;;;;;;;15.90;6.60;;;;;;;19.44;38.57;97284.67;109495;1288;22851;-83
2023/03/23 11:11:28;;;;;;;11.60;6.00;;;;;;;19.32;38.24;97273.27;109713;1288;22305;-84
2023/03/23 11:14:20;;;;;;;11.10;6.00;;;;;;;19.07;38.51;97280.06;109664;1288;22919;-84
2023/03/23 11:16:53;;;;;;;9.50;6.10;;;;;;;18.83;38.93;97285.65;109563;1288;22133;-84
2023/03/23 11:19:35;;;;;;;7.20;5.00;;;;;;;18.70;38.53;97293.09;109559;1275;22208;-84
2023/03/23 11:22:13;;;;;;;10.80;4.60;;;;;;;18.50;38.38;97280.67;109736;1288;22201;-84
2023/03/23 11:24:47;;;;;;;12.00;5.50;;;;;;;18.32;38.38;97292.46;109702;1288;22287;-84
2023/03/23 11:27:15;;;;;;;;;;;;;;;18.18;38.41;97296.74;109577;1288;22932;-84
2023/03/23 11:29:49;;;;;;;9.10;4.80;;;;;;;18.04;38.51;97291.28;109715;1288;22186;-83
2023/03/23 11:32:17;;;;;;;7.40;4.80;;;;;;;17.89;39.01;97289.22;109729;1288;22305;-82
2023/03/23 11:34:47;;;;;;;8.10;5.50;;;;;;;17.83;38.96;97305.54;109724;1288;22242;-83
2023/03/23 11:37:22;;;;;;;10.60;5.20;;;;;;;17.74;39.02;97289.77;109739;1288;22200;-83
2023/03/23 11:40:05;;;;;;;7.00;5.20;;;;;;;17.64;39.28;97299.30;109734;1288;22312;-82
2023/03/23 11:42:32;;;;;;;7.10;4.90;;;;;;;17.54;39.54;97294.89;109731;1288;22223;-82
2023/03/23 11:45:19;;;;;;;10.40;5.70;;;;;;;17.51;39.65;97304.64;109703;1288;22102;-82
2023/03/23 11:48:26;;;;;;;9.50;6.60;;;;;;;17.46;39.54;97308.83;109583;1288;23293;-83
2023/03/23 11:51:28;;;;;;;10.00;6.60;;;;;;;17.37;39.98;97297.35;109696;1288;22183;-82
2023/03/23 11:54:24;;;;;;;10.50;5.70;;;;;;;17.34;40.13;97293.56;109504;1291;22930;-83